createdAt,value
2022-09-17T00:01:24.937Z,15.00
2022-09-17T00:03:56.254Z,15.50
2022-09-17T00:06:25.168Z,14.83
2022-09-17T00:08:54.198Z,16.17
2022-09-17T00:11:24.762Z,13.77
2022-09-17T00:13:54.084Z,11.93
2022-09-17T00:16:27.927Z,15.90
2022-09-17T00:18:58.041Z,14.50
2022-09-17T00:21:26.587Z,18.40
2022-09-17T00:23:56.311Z,15.87
2022-09-17T00:26:24.729Z,20.70
2022-09-17T00:28:53.687Z,25.33
2022-09-17T00:31:22.136Z,33.87
2022-09-17T00:33:50.624Z,21.77
2022-09-17T00:36:20.684Z,16.60
2022-09-17T00:38:50.771Z,13.90
2022-09-17T00:41:19.048Z,16.23
2022-09-17T00:43:49.451Z,24.03
2022-09-17T00:46:25.192Z,20.97
2022-09-17T00:48:54.219Z,21.67
2022-09-17T00:51:28.025Z,23.37
2022-09-17T00:53:56.845Z,20.77
2022-09-17T00:56:26.930Z,18.47
2022-09-17T00:58:55.919Z,26.77
2022-09-17T01:01:24.150Z,31.67
2022-09-17T01:03:52.211Z,16.10
2022-09-17T01:06:26.712Z,13.27
2022-09-17T01:09:05.959Z,18.77
2022-09-17T01:11:55.995Z,14.27
2022-09-17T01:14:36.419Z,11.57
2022-09-17T01:17:19.466Z,9.30
2022-09-17T01:20:13.923Z,12.27
2022-09-17T01:22:55.868Z,12.13
2022-09-17T01:25:25.072Z,12.47
2022-09-17T01:28:15.704Z,10.70
2022-09-17T01:31:02.118Z,14.00
2022-09-17T01:38:05.503Z,15.97
2022-09-17T01:40:41.447Z,15.57
2022-09-17T01:43:12.253Z,18.10
2022-09-17T01:45:43.253Z,23.43
2022-09-17T01:48:17.560Z,25.70
2022-09-17T01:50:50.870Z,31.20
2022-09-17T01:53:20.177Z,24.00
2022-09-17T01:55:50.247Z,29.53
2022-09-17T01:58:20.508Z,18.40
2022-09-17T02:00:52.565Z,18.30
2022-09-17T02:03:24.372Z,23.53
2022-09-17T02:05:56.608Z,18.17
2022-09-17T02:08:27.370Z,14.90
2022-09-17T02:10:59.648Z,12.00
2022-09-17T02:13:31.088Z,10.33
2022-09-17T02:16:09.750Z,11.53
2022-09-17T02:18:41.716Z,9.20
2022-09-17T02:21:14.720Z,8.87
2022-09-17T02:23:48.361Z,8.73
2022-09-17T02:26:18.824Z,15.07
2022-09-17T02:28:50.972Z,12.27
2022-09-17T02:31:19.226Z,9.07
2022-09-17T02:33:50.748Z,10.87
2022-09-17T02:36:19.385Z,11.30
2022-09-17T02:38:47.872Z,10.93
2022-09-17T02:41:17.952Z,6.40
2022-09-17T02:43:52.683Z,11.40
2022-09-17T02:46:38.195Z,22.13
2022-09-17T02:49:23.766Z,16.57
2022-09-17T02:51:59.360Z,14.50
2022-09-17T02:54:30.045Z,17.60
2022-09-17T02:57:06.382Z,20.20
2022-09-17T02:59:41.896Z,14.40
2022-09-17T03:02:14.545Z,8.40
2022-09-17T03:04:46.855Z,15.00
2022-09-17T03:07:15.246Z,18.57
2022-09-17T03:09:43.612Z,8.30
2022-09-17T03:12:12.395Z,15.57
2022-09-17T03:14:40.429Z,37.17
2022-09-17T03:17:08.618Z,39.97
2022-09-17T03:19:36.673Z,32.63
2022-09-17T03:22:06.102Z,19.77
2022-09-17T03:24:34.080Z,32.83
2022-09-17T03:27:02.198Z,53.47
2022-09-17T03:29:30.195Z,47.10
2022-09-17T03:31:58.210Z,17.87
2022-09-17T03:34:26.126Z,38.73
2022-09-17T03:36:54.191Z,42.83
2022-09-17T03:39:23.521Z,63.10
2022-09-17T03:41:51.507Z,71.63
2022-09-17T03:44:19.599Z,78.47
2022-09-17T03:46:47.672Z,49.83
2022-09-17T03:49:15.694Z,31.93
2022-09-17T03:51:44.152Z,109.70
2022-09-17T03:54:12.245Z,78.30
2022-09-17T03:56:41.544Z,59.43
2022-09-17T03:59:09.717Z,34.43
2022-09-17T04:01:37.812Z,53.43
2022-09-17T04:04:07.878Z,50.50
2022-09-17T04:06:35.990Z,51.03
2022-09-17T04:09:05.514Z,48.83
2022-09-17T04:11:33.492Z,32.67
2022-09-17T04:14:02.975Z,46.97
2022-09-17T04:16:31.050Z,56.93
2022-09-17T04:18:59.158Z,63.87
2022-09-17T04:21:27.238Z,93.00
2022-09-17T04:23:55.452Z,97.97
2022-09-17T04:26:23.549Z,108.50
2022-09-17T04:28:51.519Z,100.93
2022-09-17T04:31:22.691Z,74.67
2022-09-17T04:33:50.726Z,98.43
2022-09-17T04:36:19.028Z,110.07
2022-09-17T04:38:49.355Z,118.50
2022-09-17T04:41:17.389Z,133.90
2022-09-17T04:43:45.419Z,71.17
2022-09-17T04:46:14.196Z,151.07
2022-09-17T04:48:43.647Z,81.97
2022-09-17T04:51:11.626Z,94.33
2022-09-17T04:53:39.610Z,110.50
2022-09-17T04:56:07.565Z,140.17
2022-09-17T04:58:35.540Z,156.70
2022-09-17T05:01:03.603Z,188.50
2022-09-17T05:03:31.685Z,147.33
2022-09-17T05:06:01.068Z,142.23
2022-09-17T05:08:29.053Z,135.70
2022-09-17T05:10:57.590Z,101.77
2022-09-17T05:13:25.588Z,125.43
2022-09-17T05:15:56.073Z,114.00
2022-09-17T05:18:24.306Z,111.93
2022-09-17T05:20:52.353Z,196.13
2022-09-17T05:23:21.827Z,165.83
2022-09-17T05:25:49.838Z,118.30
2022-09-17T05:28:17.872Z,187.00
2022-09-17T05:30:45.920Z,143.10
2022-09-17T05:33:13.890Z,120.57
2022-09-17T05:35:44.134Z,98.97
2022-09-17T05:38:12.364Z,100.50
2022-09-17T05:40:41.809Z,72.80
2022-09-17T05:43:11.159Z,74.63
2022-09-17T05:45:39.902Z,58.80
2022-09-17T05:48:10.390Z,77.17
2022-09-17T05:50:38.408Z,95.70
2022-09-17T05:53:07.505Z,62.03
2022-09-17T05:55:36.168Z,60.90
2022-09-17T05:58:12.363Z,48.87
2022-09-17T06:00:41.126Z,56.83
2022-09-17T06:03:09.646Z,36.37
2022-09-17T06:05:37.711Z,62.23
2022-09-17T06:08:05.745Z,76.60
2022-09-17T06:10:33.924Z,56.17
2022-09-17T06:13:01.941Z,74.80
2022-09-17T06:15:31.426Z,91.70
2022-09-17T06:17:59.548Z,105.20
2022-09-17T06:20:27.604Z,81.80
2022-09-17T06:22:58.098Z,78.00
2022-09-17T06:25:26.675Z,101.87
2022-09-17T06:27:54.639Z,107.93
2022-09-17T06:30:22.585Z,125.87
2022-09-17T06:32:51.928Z,107.53
2022-09-17T06:35:20.414Z,106.37
2022-09-17T06:37:48.989Z,158.80
2022-09-17T06:40:17.686Z,141.33
2022-09-17T06:42:45.715Z,141.00
2022-09-17T06:45:16.735Z,114.53
2022-09-17T06:47:46.441Z,133.10
2022-09-17T06:50:16.007Z,120.23
2022-09-17T06:52:49.473Z,204.53
2022-09-17T06:55:17.729Z,110.40
2022-09-17T06:57:45.970Z,136.73
2022-09-17T07:00:15.057Z,157.60
2022-09-17T07:02:43.137Z,140.90
2022-09-17T07:05:11.352Z,151.63
2022-09-17T07:07:41.188Z,192.03
2022-09-17T07:10:09.715Z,119.00
2022-09-17T07:12:42.925Z,82.73
2022-09-17T07:15:13.902Z,81.63
2022-09-17T07:17:42.670Z,54.33
2022-09-17T07:20:11.699Z,45.07
2022-09-17T07:22:41.251Z,52.27
2022-09-17T07:25:10.423Z,26.43
2022-09-17T07:27:38.497Z,23.83
2022-09-17T07:30:07.756Z,19.03
2022-09-17T07:32:35.763Z,36.90
2022-09-17T07:35:04.301Z,11.27
2022-09-17T07:37:32.311Z,8.20
2022-09-17T07:40:01.884Z,8.17
2022-09-17T07:42:30.056Z,10.97
2022-09-17T07:45:01.830Z,10.80
2022-09-17T07:47:30.936Z,17.10
2022-09-17T07:49:58.973Z,13.70
2022-09-17T07:52:27.538Z,17.67
2022-09-17T07:54:55.518Z,16.40
2022-09-17T07:57:24.993Z,16.40
2022-09-17T07:59:53.025Z,13.63
2022-09-17T08:02:24.202Z,10.90
2022-09-17T08:04:52.565Z,10.90
2022-09-17T08:07:20.541Z,9.03
2022-09-17T08:09:48.524Z,8.70
2022-09-17T08:12:18.344Z,7.10
2022-09-17T08:14:47.699Z,6.00
2022-09-17T08:17:15.783Z,5.70
2022-09-17T08:19:43.991Z,5.00
2022-09-17T08:22:11.983Z,4.00
2022-09-17T08:24:39.993Z,3.73
2022-09-17T08:27:08.013Z,3.50
2022-09-17T08:29:35.984Z,3.70
2022-09-17T08:32:05.612Z,3.10
2022-09-17T08:34:33.735Z,3.13
2022-09-17T08:37:02.949Z,3.40
2022-09-17T08:39:30.971Z,3.20
2022-09-17T08:42:09.433Z,3.70
2022-09-17T08:44:41.586Z,3.30
2022-09-17T08:47:16.415Z,3.70
2022-09-17T08:49:49.837Z,3.13
2022-09-17T08:52:43.088Z,3.03
2022-09-17T08:55:26.377Z,3.40
2022-09-17T08:58:02.228Z,3.50
2022-09-17T09:00:37.990Z,3.40
2022-09-17T09:03:20.733Z,7.55
2022-09-17T09:05:50.086Z,3.83
2022-09-17T09:08:20.564Z,3.77
2022-09-17T09:10:51.990Z,3.37
2022-09-17T09:13:23.288Z,3.37
2022-09-17T09:15:56.147Z,3.47
2022-09-17T09:18:27.655Z,3.40
2022-09-17T09:20:58.757Z,3.17
2022-09-17T09:23:32.334Z,2.93
2022-09-17T09:26:07.089Z,2.90
2022-09-17T09:29:04.749Z,2.87
2022-09-17T09:32:15.242Z,3.37
2022-09-17T09:34:46.350Z,3.50
2022-09-17T09:37:18.836Z,4.67
2022-09-17T09:39:47.531Z,5.23
2022-09-17T09:42:20.760Z,5.40
2022-09-17T09:44:48.754Z,5.67
2022-09-17T09:47:26.640Z,10.07
2022-09-17T09:50:09.433Z,7.80
2022-09-17T09:52:47.048Z,23.17
2022-09-17T09:55:30.355Z,20.37
2022-09-17T09:58:05.009Z,23.07
2022-09-17T10:00:36.597Z,15.43
2022-09-17T10:03:08.051Z,26.80
2022-09-17T10:05:37.475Z,31.70
2022-09-17T10:08:12.746Z,34.30
2022-09-17T10:10:55.508Z,39.30
2022-09-17T10:13:24.163Z,35.63
2022-09-17T10:15:52.385Z,52.13
2022-09-17T10:18:21.744Z,78.90
2022-09-17T10:20:59.463Z,92.30
2022-09-17T10:23:29.415Z,78.57
2022-09-17T10:25:57.686Z,102.60
2022-09-17T10:28:40.546Z,92.87
2022-09-17T10:31:10.747Z,78.30
2022-09-17T10:33:52.828Z,111.43
2022-09-17T10:36:41.234Z,104.27
2022-09-17T10:39:32.111Z,114.37
2022-09-17T10:42:01.315Z,143.27
2022-09-17T10:44:30.607Z,66.97
2022-09-17T10:47:04.607Z,84.40
2022-09-17T10:49:37.979Z,67.63
2022-09-17T10:52:11.986Z,53.50
2022-09-17T10:55:00.833Z,69.80
2022-09-17T10:57:46.455Z,38.80
2022-09-17T11:00:17.091Z,69.00
2022-09-17T11:03:23.141Z,92.40
2022-09-17T11:06:15.634Z,90.03
2022-09-17T11:08:51.410Z,150.40
2022-09-17T11:11:29.849Z,185.80
2022-09-17T11:14:04.067Z,231.30
2022-09-17T11:16:38.060Z,248.80
2022-09-17T11:19:14.309Z,261.07
2022-09-17T11:21:45.798Z,160.70
2022-09-17T11:24:54.668Z,241.67
2022-09-17T11:27:39.478Z,133.03
2022-09-17T11:30:16.869Z,135.73
2022-09-17T11:33:20.348Z,82.73
2022-09-17T11:35:49.952Z,70.40
2022-09-17T11:38:22.012Z,54.07
2022-09-17T11:40:54.517Z,85.33
2022-09-17T11:43:27.173Z,62.33
2022-09-17T11:46:01.387Z,50.93
2022-09-17T11:48:35.126Z,54.43
2022-09-17T11:51:08.923Z,62.87
2022-09-17T11:53:40.873Z,33.67
2022-09-17T11:56:16.870Z,27.13
2022-09-17T11:58:45.819Z,24.03
2022-09-17T12:01:18.253Z,21.17
2022-09-17T12:03:52.456Z,17.20
2022-09-17T12:06:24.349Z,18.97
2022-09-17T12:08:56.818Z,10.87
2022-09-17T12:11:33.135Z,8.70
2022-09-17T12:14:05.802Z,10.07
2022-09-17T12:16:37.508Z,11.83
2022-09-17T12:19:12.060Z,9.40
2022-09-17T12:21:44.640Z,10.20
2022-09-17T12:24:16.255Z,6.47
2022-09-17T12:27:01.064Z,5.70
2022-09-17T12:30:00.228Z,6.30
2022-09-17T12:32:39.125Z,5.00
2022-09-17T12:35:17.647Z,4.63
2022-09-17T12:37:55.112Z,4.07
2022-09-17T12:40:28.485Z,4.20
2022-09-17T12:43:06.472Z,3.43
2022-09-17T12:45:42.190Z,3.20
2022-09-17T12:48:24.756Z,3.40
2022-09-17T12:51:03.390Z,3.30
2022-09-17T12:53:37.098Z,3.40
2022-09-17T12:56:15.974Z,3.20
2022-09-17T12:59:04.419Z,3.23
2022-09-17T13:01:39.894Z,3.33
2022-09-17T13:04:17.120Z,2.97
2022-09-17T13:07:16.261Z,3.27
2022-09-17T13:09:53.263Z,3.83
2022-09-17T13:12:25.404Z,3.43
2022-09-17T13:15:05.975Z,4.03
2022-09-17T13:17:43.414Z,3.80
2022-09-17T13:20:16.377Z,4.10
2022-09-17T13:22:49.485Z,4.10
2022-09-17T13:25:19.794Z,3.67
2022-09-17T13:27:49.375Z,3.47
2022-09-17T13:30:20.720Z,3.60
2022-09-17T13:32:55.198Z,3.30
2022-09-17T13:35:50.822Z,3.50
2022-09-17T13:38:23.769Z,3.20
2022-09-17T13:40:53.038Z,3.53
2022-09-17T13:43:26.384Z,4.00
2022-09-17T13:46:16.260Z,3.50
2022-09-17T13:48:54.476Z,4.07
2022-09-17T13:51:59.143Z,4.87
2022-09-17T13:54:39.046Z,3.50
2022-09-17T13:57:10.262Z,3.80
2022-09-17T13:59:38.753Z,4.30
2022-09-17T14:02:37.990Z,3.80
2022-09-17T14:05:34.427Z,4.13
2022-09-17T14:08:14.493Z,3.47
2022-09-17T14:10:44.228Z,3.97
2022-09-17T14:13:44.387Z,3.60
2022-09-17T14:16:35.882Z,4.90
2022-09-17T14:19:23.004Z,4.93
2022-09-17T14:22:00.732Z,4.10
2022-09-17T14:24:35.586Z,3.93
2022-09-17T14:27:11.824Z,3.50
2022-09-17T14:29:52.700Z,4.00
2022-09-17T14:32:32.334Z,3.30
2022-09-17T14:35:02.816Z,3.03
2022-09-17T14:37:31.128Z,3.20
2022-09-17T14:40:00.287Z,3.07
2022-09-17T14:42:33.479Z,3.90
2022-09-17T14:45:03.182Z,3.50
2022-09-17T14:47:31.476Z,4.23
2022-09-17T14:50:21.020Z,3.77
2022-09-17T14:52:50.144Z,3.30
2022-09-17T14:55:20.584Z,3.50
2022-09-17T14:57:52.180Z,3.50
2022-09-17T15:00:23.194Z,3.10
2022-09-17T15:02:54.194Z,3.63
2022-09-17T15:05:30.388Z,3.63
2022-09-17T15:08:22.795Z,3.83
2022-09-17T15:10:55.127Z,3.97
2022-09-17T15:13:27.150Z,3.27
2022-09-17T15:16:01.907Z,3.63
2022-09-17T15:18:37.628Z,4.00
2022-09-17T15:21:12.330Z,14.00
2022-09-17T15:23:40.813Z,6.93
2022-09-17T15:26:08.844Z,4.30
2022-09-17T15:28:40.098Z,10.90
2022-09-17T15:31:15.716Z,3.40
2022-09-17T15:33:44.216Z,5.17
2022-09-17T15:36:21.144Z,3.53
2022-09-17T15:38:49.674Z,4.13
2022-09-17T15:41:28.522Z,3.30
2022-09-17T15:44:28.580Z,2.77
2022-09-17T15:46:56.806Z,2.73
2022-09-17T15:49:29.966Z,3.00
2022-09-17T15:52:36.637Z,3.47
2022-09-17T15:55:06.993Z,3.40
2022-09-17T15:57:34.985Z,4.10
2022-09-17T16:00:14.054Z,3.27
2022-09-17T16:02:42.365Z,3.10
2022-09-17T16:05:55.602Z,3.60
2022-09-17T16:08:24.907Z,5.43
2022-09-17T16:10:54.323Z,4.23
2022-09-17T16:13:25.291Z,4.10
2022-09-17T16:15:56.734Z,4.30
2022-09-17T16:18:24.727Z,3.63
2022-09-17T16:20:52.718Z,3.43
2022-09-17T16:23:20.688Z,4.23
2022-09-17T16:25:48.822Z,3.40
2022-09-17T16:28:20.549Z,3.43
2022-09-17T16:30:49.639Z,3.90
2022-09-17T16:33:19.094Z,6.40
2022-09-17T16:35:47.072Z,4.20
2022-09-17T16:38:15.500Z,3.70
2022-09-17T16:40:45.334Z,4.27
2022-09-17T16:43:13.468Z,4.03
2022-09-17T16:45:42.910Z,4.20
2022-09-17T16:48:11.422Z,3.67
2022-09-17T16:50:41.237Z,4.20
2022-09-17T16:53:09.198Z,3.20
2022-09-17T16:55:37.669Z,3.17
2022-09-17T16:58:05.732Z,3.17
2022-09-17T17:00:33.792Z,3.27
2022-09-17T17:03:03.239Z,3.10
2022-09-17T17:05:32.438Z,3.80
2022-09-17T17:08:05.876Z,4.20
2022-09-17T17:10:34.939Z,16.90
2022-09-17T17:13:03.028Z,28.20
2022-09-17T17:15:31.215Z,19.57
2022-09-17T17:17:59.383Z,22.40
2022-09-17T17:20:29.465Z,9.70
2022-09-17T17:22:57.428Z,6.07
2022-09-17T17:25:27.139Z,4.93
2022-09-17T17:27:55.426Z,5.07
2022-09-17T17:30:23.409Z,4.90
2022-09-17T17:32:52.323Z,4.40
2022-09-17T17:35:22.078Z,3.23
2022-09-17T17:37:51.417Z,3.97
2022-09-17T17:40:20.949Z,3.30
2022-09-17T17:42:52.709Z,3.40
2022-09-17T17:45:20.681Z,3.13
2022-09-17T17:47:48.904Z,4.47
2022-09-17T17:50:17.089Z,3.43
2022-09-17T17:52:48.087Z,4.60
2022-09-17T17:55:17.943Z,4.30
2022-09-17T17:57:46.065Z,4.40
2022-09-17T18:00:16.699Z,3.20
2022-09-17T18:02:44.856Z,4.00
2022-09-17T18:05:13.167Z,3.73
2022-09-17T18:07:41.300Z,3.83
2022-09-17T18:10:10.446Z,4.10
2022-09-17T18:12:40.049Z,3.73
2022-09-17T18:15:08.853Z,4.20
2022-09-17T18:17:36.887Z,4.20
2022-09-17T18:20:05.684Z,3.50
2022-09-17T18:22:33.658Z,3.20
2022-09-17T18:25:01.661Z,3.30
2022-09-17T18:27:29.676Z,3.20
2022-09-17T18:29:59.093Z,3.90
2022-09-17T18:32:27.059Z,4.20
2022-09-17T18:34:54.994Z,4.10
2022-09-17T18:37:22.991Z,3.90
2022-09-17T18:39:58.389Z,3.87
2022-09-17T18:42:27.308Z,3.53
2022-09-17T18:44:55.413Z,3.57
2022-09-17T18:47:24.843Z,3.87
2022-09-17T18:49:53.153Z,4.30
2022-09-17T18:52:21.266Z,4.17
2022-09-17T18:54:49.219Z,4.17
2022-09-17T18:57:17.263Z,5.20
2022-09-17T18:59:47.097Z,4.80
2022-09-17T19:02:15.136Z,5.03
2022-09-17T19:04:44.499Z,4.10
2022-09-17T19:07:12.434Z,5.17
2022-09-17T19:09:40.326Z,5.10
2022-09-17T19:12:08.306Z,6.03
2022-09-17T19:14:36.232Z,5.33
2022-09-17T19:17:04.229Z,4.80
2022-09-17T19:19:32.211Z,4.63
2022-09-17T19:22:01.464Z,4.60
2022-09-17T19:24:29.418Z,7.20
2022-09-17T19:26:58.813Z,6.93
2022-09-17T19:29:27.358Z,5.90
2022-09-17T19:31:55.367Z,5.53
2022-09-17T19:34:23.296Z,5.83
2022-09-17T19:36:51.272Z,6.57
2022-09-17T19:39:20.593Z,4.97
2022-09-17T19:41:48.555Z,8.53
2022-09-17T19:44:16.519Z,6.97
2022-09-17T19:46:45.119Z,7.00
2022-09-17T19:49:13.864Z,9.30
2022-09-17T19:51:41.839Z,8.93
2022-09-17T19:54:10.316Z,9.27
2022-09-17T19:56:39.873Z,10.83
2022-09-17T19:59:07.924Z,9.87
2022-09-17T20:01:35.911Z,12.17
2022-09-17T20:04:04.253Z,16.70
2022-09-17T20:06:34.534Z,20.53
2022-09-17T20:09:02.651Z,21.90
2022-09-17T20:11:30.643Z,34.80
2022-09-17T20:14:03.050Z,69.00
2022-09-17T20:16:31.550Z,61.73
2022-09-17T20:18:59.663Z,66.50
2022-09-17T20:21:29.475Z,59.90
2022-09-17T20:23:58.380Z,70.23
2022-09-17T20:26:26.628Z,72.27
2022-09-17T20:28:54.862Z,115.90
2022-09-17T20:31:25.370Z,113.80
2022-09-17T20:33:54.252Z,158.90
2022-09-17T20:36:23.810Z,165.80
2022-09-17T20:39:14.324Z,138.83
2022-09-17T20:41:40.592Z,177.20
2022-09-17T20:44:08.874Z,194.67
2022-09-17T20:46:38.222Z,229.43
2022-09-17T20:49:06.206Z,185.57
2022-09-17T20:51:34.301Z,214.27
2022-09-17T20:54:02.884Z,233.13
2022-09-17T20:56:33.248Z,197.57
2022-09-17T20:59:08.720Z,313.10
2022-09-17T21:01:38.436Z,296.53
2022-09-17T21:04:08.214Z,299.73
2022-09-17T21:06:37.962Z,284.77
2022-09-17T21:09:06.924Z,309.77
2022-09-17T21:11:35.609Z,407.10
2022-09-17T21:14:03.894Z,391.10
2022-09-17T21:16:32.178Z,461.47
2022-09-17T21:19:02.881Z,404.93
2022-09-17T21:21:34.295Z,423.57
2022-09-17T21:24:02.615Z,400.37
2022-09-17T21:26:31.214Z,396.27
2022-09-17T21:28:59.189Z,423.57
2022-09-17T21:31:32.330Z,406.50
2022-09-17T21:34:03.732Z,448.93
2022-09-17T21:36:33.955Z,423.63
2022-09-17T21:39:02.995Z,408.90
2022-09-17T21:41:31.207Z,405.53
2022-09-17T21:43:59.249Z,368.90
2022-09-17T21:46:28.534Z,322.77
2022-09-17T21:48:57.927Z,450.70
2022-09-17T21:51:30.416Z,373.63
2022-09-17T21:54:00.455Z,392.47
2022-09-17T21:56:29.788Z,374.20
2022-09-17T21:58:58.743Z,353.93
2022-09-17T22:01:28.053Z,388.10
2022-09-17T22:03:57.097Z,419.73
2022-09-17T22:06:50.908Z,430.63
2022-09-17T22:09:20.502Z,299.70
2022-09-17T22:11:48.465Z,382.93
2022-09-17T22:14:19.448Z,441.07
2022-09-17T22:16:48.865Z,342.13
2022-09-17T22:19:18.577Z,428.80
2022-09-17T22:21:48.329Z,352.57
2022-09-17T22:24:18.194Z,352.53
2022-09-17T22:26:47.570Z,375.40
2022-09-17T22:29:17.304Z,346.70
2022-09-17T22:31:46.222Z,330.60
2022-09-17T22:34:15.597Z,381.20
2022-09-17T22:36:43.914Z,393.43
2022-09-17T22:39:12.219Z,396.03
2022-09-17T22:41:45.634Z,321.27
2022-09-17T22:44:15.710Z,330.50
2022-09-17T22:46:46.215Z,322.27
2022-09-17T22:49:14.770Z,334.03
2022-09-17T22:51:43.377Z,412.07
2022-09-17T22:54:12.597Z,346.23
2022-09-17T22:56:42.255Z,391.77
2022-09-17T22:59:10.329Z,353.77
2022-09-17T23:01:40.079Z,433.13
2022-09-17T23:04:08.209Z,408.90
2022-09-17T23:06:38.501Z,421.83
2022-09-17T23:09:07.344Z,427.07
2022-09-17T23:11:36.451Z,397.93
2022-09-17T23:14:08.714Z,389.33
2022-09-17T23:16:38.636Z,372.13
2022-09-17T23:19:07.295Z,388.40
2022-09-17T23:21:35.707Z,470.63
2022-09-17T23:24:28.964Z,458.97
2022-09-17T23:26:57.527Z,566.13
2022-09-17T23:29:26.999Z,405.80
2022-09-17T23:31:54.950Z,454.30
2022-09-17T23:34:23.066Z,432.83
2022-09-17T23:36:51.074Z,454.50
2022-09-17T23:39:19.325Z,498.07
2022-09-17T23:41:48.061Z,437.03
2022-09-17T23:44:16.541Z,405.47
2022-09-17T23:46:46.926Z,362.43
2022-09-17T23:49:15.719Z,439.43
2022-09-17T23:51:44.009Z,508.30
2022-09-17T23:54:12.164Z,441.63
2022-09-17T23:56:40.373Z,408.07
2022-09-17T23:59:08.540Z,432.43
